createdAt,value
2022-08-21T00:00:16.262Z,78.61
2022-08-21T00:01:16.258Z,78.61
2022-08-21T00:02:16.320Z,78.75
2022-08-21T00:03:16.227Z,78.81
2022-08-21T00:04:20.991Z,78.61
2022-08-21T00:05:17.194Z,78.55
2022-08-21T00:06:16.212Z,78.75
2022-08-21T00:07:16.183Z,79.16
2022-08-21T00:08:16.165Z,78.96
2022-08-21T00:09:16.157Z,79.56
2022-08-21T00:10:16.143Z,79.66
2022-08-21T00:11:16.139Z,79.16
2022-08-21T00:12:16.139Z,79.56
2022-08-21T00:13:16.906Z,80.26
2022-08-21T00:14:16.095Z,79.76
2022-08-21T00:15:16.100Z,80.26
2022-08-21T00:16:16.081Z,80.30
2022-08-21T00:17:16.074Z,80.40
2022-08-21T00:18:16.052Z,80.50
2022-08-21T00:19:16.048Z,80.50
2022-08-21T00:20:16.035Z,80.30
2022-08-21T00:21:16.023Z,80.60
2022-08-21T00:22:16.028Z,80.60
2022-08-21T00:23:16.002Z,80.70
2022-08-21T00:24:15.992Z,81.55
2022-08-21T00:25:15.975Z,81.35
2022-08-21T00:26:15.963Z,80.84
2022-08-21T00:27:15.968Z,81.51
2022-08-21T00:28:15.943Z,81.65
2022-08-21T00:29:15.934Z,82.25
2022-08-21T00:30:15.926Z,82.76
2022-08-21T00:31:16.913Z,82.65
2022-08-21T00:32:15.920Z,82.15
2022-08-21T00:33:15.890Z,82.15
2022-08-21T00:34:15.878Z,82.29
2022-08-21T00:35:15.869Z,82.39
2022-08-21T00:36:15.856Z,82.70
2022-08-21T00:37:15.870Z,83.10
2022-08-21T00:38:15.835Z,83.70
2022-08-21T00:39:15.817Z,83.50
2022-08-21T00:40:15.896Z,84.01
2022-08-21T00:41:37.816Z,83.70
2022-08-21T00:42:16.792Z,84.01
2022-08-21T00:43:15.776Z,84.01
2022-08-21T00:44:15.763Z,84.61
2022-08-21T00:45:15.752Z,84.61
2022-08-21T00:46:15.739Z,84.21
2022-08-21T00:47:15.740Z,84.11
2022-08-21T00:48:15.721Z,84.55
2022-08-21T00:49:15.711Z,84.55
2022-08-21T00:50:22.001Z,85.16
2022-08-21T00:51:16.679Z,85.22
2022-08-21T00:52:15.687Z,85.46
2022-08-21T00:53:15.660Z,85.56
2022-08-21T00:54:18.761Z,85.66
2022-08-21T00:55:15.642Z,85.40
2022-08-21T00:56:15.629Z,86.16
2022-08-21T00:57:15.677Z,85.96
2022-08-21T00:58:17.372Z,85.76
2022-08-21T00:59:15.598Z,86.07
2022-08-21T01:00:15.581Z,86.00
2022-08-21T01:01:15.644Z,86.00
2022-08-21T01:02:15.571Z,86.21
2022-08-21T01:03:15.546Z,86.10
2022-08-21T01:04:15.534Z,86.51
2022-08-21T01:05:15.524Z,86.10
2022-08-21T01:06:15.518Z,86.65
2022-08-21T01:07:15.515Z,86.30
2022-08-21T01:08:15.489Z,86.51
2022-08-21T01:09:15.484Z,86.00
2022-08-21T01:10:23.690Z,86.71
2022-08-21T01:11:16.454Z,86.10
2022-08-21T01:12:15.466Z,86.85
2022-08-21T01:13:15.437Z,86.65
2022-08-21T01:14:15.434Z,87.32
2022-08-21T01:15:15.410Z,87.32
2022-08-21T01:16:15.406Z,87.15
2022-08-21T01:17:15.428Z,86.95
2022-08-21T01:18:15.379Z,87.01
2022-08-21T01:19:15.368Z,87.82
2022-08-21T01:20:15.361Z,87.76
2022-08-21T01:21:15.357Z,87.36
2022-08-21T01:22:15.342Z,87.76
2022-08-21T01:23:15.324Z,87.36
2022-08-21T01:24:15.316Z,87.66
2022-08-21T01:25:15.304Z,87.05
2022-08-21T01:26:15.289Z,88.17
2022-08-21T01:27:15.293Z,87.56
2022-08-21T01:28:15.270Z,87.76
2022-08-21T01:29:15.258Z,87.90
2022-08-21T01:30:15.248Z,87.76
2022-08-21T01:31:15.243Z,87.60
2022-08-21T01:32:15.242Z,87.70
2022-08-21T01:33:15.212Z,87.66
2022-08-21T01:34:15.203Z,87.66
2022-08-21T01:35:15.188Z,88.37
2022-08-21T01:36:15.171Z,87.86
2022-08-21T01:37:15.180Z,87.76
2022-08-21T01:38:15.161Z,87.86
2022-08-21T01:39:15.142Z,87.70
2022-08-21T01:40:15.211Z,87.60
2022-08-21T01:41:15.121Z,87.56
2022-08-21T01:42:15.133Z,87.46
2022-08-21T01:43:15.090Z,87.86
2022-08-21T01:44:15.085Z,88.17
2022-08-21T01:45:15.075Z,88.31
2022-08-21T01:46:15.055Z,87.96
2022-08-21T01:47:15.067Z,87.81
2022-08-21T01:48:15.040Z,88.57
2022-08-21T01:49:15.024Z,88.41
2022-08-21T01:50:15.017Z,89.01
2022-08-21T01:51:15.006Z,88.41
2022-08-21T01:52:15.003Z,88.71
2022-08-21T01:53:14.982Z,89.01
2022-08-21T01:54:14.995Z,88.81
2022-08-21T01:55:14.963Z,88.61
2022-08-21T01:56:14.946Z,89.01
2022-08-21T01:57:14.951Z,88.92
2022-08-21T01:58:14.923Z,88.01
2022-08-21T01:59:14.913Z,88.92
2022-08-21T02:00:14.900Z,88.51
2022-08-21T02:01:14.963Z,88.51
2022-08-21T02:02:14.896Z,88.61
2022-08-21T02:03:14.862Z,88.51
2022-08-21T02:04:15.855Z,89.32
2022-08-21T02:05:14.847Z,88.51
2022-08-21T02:06:14.830Z,88.85
2022-08-21T02:07:14.827Z,88.35
2022-08-21T02:08:14.800Z,88.51
2022-08-21T02:09:14.797Z,88.85
2022-08-21T02:10:14.782Z,89.36
2022-08-21T02:11:14.768Z,89.56
2022-08-21T02:12:14.775Z,89.16
2022-08-21T02:13:14.750Z,89.16
2022-08-21T02:14:14.742Z,88.85
2022-08-21T02:15:14.722Z,89.20
2022-08-21T02:16:17.296Z,89.50
2022-08-21T02:17:14.721Z,89.16
2022-08-21T02:18:14.687Z,89.97
2022-08-21T02:19:14.685Z,89.81
2022-08-21T02:20:14.672Z,89.30
2022-08-21T02:21:14.662Z,89.91
2022-08-21T02:22:14.647Z,89.70
2022-08-21T02:23:14.650Z,89.61
2022-08-21T02:24:14.633Z,89.40
2022-08-21T02:25:14.608Z,89.81
2022-08-21T02:26:14.598Z,89.81
2022-08-21T02:27:14.600Z,89.61
2022-08-21T02:28:14.588Z,89.24
2022-08-21T02:29:14.573Z,89.34
2022-08-21T02:30:14.552Z,89.81
2022-08-21T02:31:14.555Z,89.54
2022-08-21T02:32:15.842Z,89.85
2022-08-21T02:33:14.535Z,89.54
2022-08-21T02:34:14.508Z,89.85
2022-08-21T02:35:14.498Z,89.45
2022-08-21T02:36:14.493Z,89.24
2022-08-21T02:37:14.482Z,89.61
2022-08-21T02:38:14.491Z,89.95
2022-08-21T02:39:14.453Z,89.45
2022-08-21T02:40:14.469Z,89.45
2022-08-21T02:41:14.439Z,89.34
2022-08-21T02:42:14.433Z,89.85
2022-08-21T02:43:14.436Z,89.45
2022-08-21T02:44:14.400Z,89.04
2022-08-21T02:45:14.396Z,89.69
2022-08-21T02:46:14.377Z,89.48
2022-08-21T02:47:14.381Z,89.39
2022-08-21T02:48:14.372Z,88.88
2022-08-21T02:49:14.343Z,89.39
2022-08-21T02:50:14.331Z,88.94
2022-08-21T02:51:14.332Z,88.84
2022-08-21T02:52:14.316Z,88.88
2022-08-21T02:53:14.315Z,88.88
2022-08-21T02:54:14.294Z,89.69
2022-08-21T02:55:14.284Z,89.59
2022-08-21T02:56:14.270Z,89.69
2022-08-21T02:57:14.254Z,89.48
2022-08-21T02:58:14.257Z,89.69
2022-08-21T02:59:14.237Z,89.18
2022-08-21T03:00:14.218Z,89.69
2022-08-21T03:01:14.283Z,89.28
2022-08-21T03:02:14.198Z,89.69
2022-08-21T03:03:14.236Z,89.32
2022-08-21T03:04:14.184Z,89.39
2022-08-21T03:05:14.172Z,89.59
2022-08-21T03:06:14.162Z,89.59
2022-08-21T03:07:14.154Z,89.89
2022-08-21T03:08:14.139Z,89.63
2022-08-21T03:09:14.134Z,89.73
2022-08-21T03:10:14.109Z,90.03
2022-08-21T03:11:14.098Z,89.43
2022-08-21T03:12:14.094Z,89.73
2022-08-21T03:13:14.074Z,89.73
2022-08-21T03:14:14.081Z,89.53
2022-08-21T03:15:14.062Z,89.59
2022-08-21T03:16:14.048Z,90.14
2022-08-21T03:17:14.035Z,89.94
2022-08-21T03:18:14.020Z,89.73
2022-08-21T03:19:14.021Z,89.73
2022-08-21T03:20:13.997Z,89.94
2022-08-21T03:21:13.986Z,89.53
2022-08-21T03:22:13.975Z,89.43
2022-08-21T03:23:16.775Z,90.14
2022-08-21T03:24:13.975Z,89.94
2022-08-21T03:25:13.948Z,90.64
2022-08-21T03:26:13.928Z,89.83
2022-08-21T03:27:13.917Z,89.83
2022-08-21T03:28:14.025Z,89.73
2022-08-21T03:29:13.919Z,89.87
2022-08-21T03:30:13.885Z,89.94
2022-08-21T03:31:13.882Z,90.08
2022-08-21T03:32:13.866Z,89.63
2022-08-21T03:33:15.127Z,89.98
2022-08-21T03:34:13.854Z,90.48
2022-08-21T03:35:13.830Z,89.98
2022-08-21T03:36:13.825Z,89.98
2022-08-21T03:37:13.818Z,89.73
2022-08-21T03:38:13.827Z,90.08
2022-08-21T03:39:13.806Z,90.08
2022-08-21T03:40:13.852Z,90.34
2022-08-21T03:41:13.759Z,90.08
2022-08-21T03:42:13.750Z,90.89
2022-08-21T03:43:13.736Z,89.94
2022-08-21T03:44:13.750Z,89.98
2022-08-21T03:45:13.714Z,90.08
2022-08-21T03:46:13.711Z,90.48
2022-08-21T03:47:13.700Z,90.48
2022-08-21T03:48:13.719Z,90.38
2022-08-21T03:49:13.716Z,90.38
2022-08-21T03:50:13.698Z,90.58
2022-08-21T03:51:13.651Z,89.87
2022-08-21T03:52:13.646Z,90.38
2022-08-21T03:53:16.926Z,90.48
2022-08-21T03:54:13.614Z,90.48
2022-08-21T03:55:13.649Z,90.28
2022-08-21T03:56:13.598Z,90.38
2022-08-21T03:57:13.587Z,90.83
2022-08-21T03:58:16.528Z,90.48
2022-08-21T03:59:13.565Z,90.38
2022-08-21T04:00:13.565Z,90.53
2022-08-21T04:01:13.555Z,90.22
2022-08-21T04:02:13.531Z,90.53
2022-08-21T04:03:13.514Z,90.58
2022-08-21T04:04:13.508Z,90.58
2022-08-21T04:05:13.505Z,90.79
2022-08-21T04:06:13.478Z,90.48
2022-08-21T04:07:13.495Z,90.12
2022-08-21T04:08:13.462Z,89.98
2022-08-21T04:09:13.451Z,90.08
2022-08-21T04:10:13.449Z,90.69
2022-08-21T04:11:13.428Z,90.58
2022-08-21T04:12:13.422Z,90.73
2022-08-21T04:13:13.398Z,90.48
2022-08-21T04:14:13.388Z,90.62
2022-08-21T04:15:13.397Z,90.53
2022-08-21T04:16:13.364Z,90.53
2022-08-21T04:17:13.351Z,90.42
2022-08-21T04:18:13.350Z,90.42
2022-08-21T04:19:13.330Z,90.83
2022-08-21T04:20:13.344Z,90.73
2022-08-21T04:21:13.453Z,90.62
2022-08-21T04:22:13.303Z,90.83
2022-08-21T04:23:13.282Z,90.42
2022-08-21T04:24:14.273Z,90.73
2022-08-21T04:25:13.298Z,90.32
2022-08-21T04:26:13.250Z,90.73
2022-08-21T04:27:13.237Z,90.32
2022-08-21T04:28:13.237Z,90.67
2022-08-21T04:29:13.221Z,90.47
2022-08-21T04:30:13.218Z,90.67
2022-08-21T04:31:13.195Z,91.08
2022-08-21T04:32:13.181Z,90.67
2022-08-21T04:33:13.176Z,90.62
2022-08-21T04:34:13.167Z,91.03
2022-08-21T04:35:13.170Z,91.08
2022-08-21T04:36:13.143Z,91.48
2022-08-21T04:37:13.125Z,91.44
2022-08-21T04:38:13.116Z,91.68
2022-08-21T04:39:13.100Z,91.58
2022-08-21T04:40:13.263Z,91.44
2022-08-21T04:41:13.085Z,91.68
2022-08-21T04:42:13.067Z,91.48
2022-08-21T04:43:13.066Z,91.17
2022-08-21T04:44:13.145Z,91.28
2022-08-21T04:45:13.053Z,91.38
2022-08-21T04:46:13.637Z,91.08
2022-08-21T04:47:13.017Z,91.44
2022-08-21T04:48:14.257Z,91.78
2022-08-21T04:49:12.989Z,91.48
2022-08-21T04:50:12.989Z,91.38
2022-08-21T04:51:12.966Z,91.58
2022-08-21T04:52:12.954Z,91.58
2022-08-21T04:53:12.940Z,91.78
2022-08-21T04:54:12.930Z,91.78
2022-08-21T04:55:12.934Z,91.58
2022-08-21T04:56:12.907Z,91.99
2022-08-21T04:57:12.903Z,91.89
2022-08-21T04:58:12.885Z,91.54
2022-08-21T04:59:12.881Z,91.54
2022-08-21T05:00:14.334Z,91.44
2022-08-21T05:01:12.912Z,91.48
2022-08-21T05:02:12.847Z,91.54
2022-08-21T05:03:12.828Z,91.54
2022-08-21T05:04:12.819Z,91.54
2022-08-21T05:05:12.815Z,91.54
2022-08-21T05:06:12.801Z,91.03
2022-08-21T05:07:12.788Z,91.24
2022-08-21T05:08:12.773Z,91.44
2022-08-21T05:09:12.767Z,90.89
2022-08-21T05:10:13.863Z,90.73
2022-08-21T05:11:12.746Z,90.89
2022-08-21T05:12:12.733Z,90.22
2022-08-21T05:13:12.722Z,90.62
2022-08-21T05:14:12.712Z,90.38
2022-08-21T05:15:13.078Z,90.69
2022-08-21T05:16:12.693Z,90.18
2022-08-21T05:17:12.679Z,90.48
2022-08-21T05:18:12.657Z,89.87
2022-08-21T05:19:12.655Z,89.83
2022-08-21T05:20:12.685Z,89.98
2022-08-21T05:21:12.633Z,90.08
2022-08-21T05:22:12.620Z,90.14
2022-08-21T05:23:12.609Z,89.53
2022-08-21T05:24:12.591Z,89.73
2022-08-21T05:25:12.592Z,88.82
2022-08-21T05:26:18.041Z,88.72
2022-08-21T05:27:13.560Z,88.72
2022-08-21T05:28:12.546Z,88.88
2022-08-21T05:29:13.067Z,88.57
2022-08-21T05:30:12.535Z,88.88
2022-08-21T05:31:12.509Z,88.07
2022-08-21T05:32:12.499Z,88.64
2022-08-21T05:33:12.493Z,88.33
2022-08-21T05:34:12.475Z,87.62
2022-08-21T05:35:12.484Z,87.93
2022-08-21T05:36:12.459Z,87.52
2022-08-21T05:37:12.440Z,87.32
2022-08-21T05:38:16.739Z,87.38
2022-08-21T05:39:13.418Z,87.18
2022-08-21T05:40:21.430Z,86.63
2022-08-21T05:41:13.469Z,86.22
2022-08-21T05:42:12.385Z,86.22
2022-08-21T05:43:12.379Z,86.33
2022-08-21T05:44:12.365Z,85.42
2022-08-21T05:45:12.369Z,86.02
2022-08-21T05:46:12.356Z,86.13
2022-08-21T05:47:12.327Z,86.19
2022-08-21T05:48:12.343Z,85.68
2022-08-21T05:49:12.310Z,85.58
2022-08-21T05:50:12.306Z,85.58
2022-08-21T05:51:12.280Z,85.68
2022-08-21T05:52:12.277Z,84.73
2022-08-21T05:53:12.267Z,84.73
2022-08-21T05:54:12.258Z,84.53
2022-08-21T05:55:12.257Z,83.72
2022-08-21T05:56:12.226Z,83.52
2022-08-21T05:57:12.211Z,83.88
2022-08-21T05:58:12.209Z,83.92
2022-08-21T05:59:12.191Z,83.38
2022-08-21T06:00:12.191Z,83.48
2022-08-21T06:01:12.230Z,83.58
2022-08-21T06:02:12.252Z,82.67
2022-08-21T06:03:12.148Z,82.67
2022-08-21T06:04:12.132Z,82.53
2022-08-21T06:05:12.133Z,82.23
2022-08-21T06:06:12.116Z,82.43
2022-08-21T06:07:12.103Z,82.19
2022-08-21T06:08:12.086Z,81.82
2022-08-21T06:09:12.081Z,81.68
2022-08-21T06:10:12.084Z,80.88
2022-08-21T06:11:12.051Z,80.58
2022-08-21T06:12:12.051Z,80.82
2022-08-21T06:13:12.034Z,80.82
2022-08-21T06:14:12.026Z,81.32
2022-08-21T06:15:12.019Z,81.36
2022-08-21T06:16:12.005Z,82.17
2022-08-21T06:17:11.991Z,82.37
2022-08-21T06:18:11.982Z,82.37
2022-08-21T06:19:11.967Z,82.17
2022-08-21T06:20:11.973Z,82.17
2022-08-21T06:21:11.950Z,82.23
2022-08-21T06:22:11.954Z,82.27
2022-08-21T06:23:11.927Z,82.17
2022-08-21T06:24:11.916Z,82.33
2022-08-21T06:25:11.908Z,82.64
2022-08-21T06:26:11.888Z,82.23
2022-08-21T06:27:11.875Z,81.73
2022-08-21T06:28:11.872Z,81.62
2022-08-21T06:29:11.855Z,81.76
2022-08-21T06:30:11.863Z,81.62
2022-08-21T06:31:11.838Z,81.82
2022-08-21T06:32:11.826Z,81.16
2022-08-21T06:33:11.812Z,81.22
2022-08-21T06:34:11.803Z,81.73
2022-08-21T06:35:11.804Z,81.56
2022-08-21T06:36:11.779Z,81.22
2022-08-21T06:37:11.759Z,81.52
2022-08-21T06:38:11.755Z,81.32
2022-08-21T06:39:16.464Z,80.92
2022-08-21T06:40:13.029Z,80.98
2022-08-21T06:41:11.714Z,81.18
2022-08-21T06:42:11.703Z,80.78
2022-08-21T06:43:11.691Z,80.68
2022-08-21T06:44:11.687Z,81.48
2022-08-21T06:45:11.691Z,80.78
2022-08-21T06:46:11.666Z,80.68
2022-08-21T06:47:11.646Z,80.58
2022-08-21T06:48:14.615Z,80.74
2022-08-21T06:49:17.573Z,80.54
2022-08-21T06:50:12.629Z,80.13
2022-08-21T06:51:11.601Z,79.43
2022-08-21T06:52:11.596Z,79.29
2022-08-21T06:53:11.585Z,79.09
2022-08-21T06:54:11.577Z,79.03
2022-08-21T06:55:11.570Z,78.69
2022-08-21T06:56:11.550Z,78.49
2022-08-21T06:57:11.545Z,78.49
2022-08-21T06:58:11.530Z,79.29
2022-08-21T06:59:11.524Z,78.69
2022-08-21T07:00:11.515Z,78.79
2022-08-21T07:01:11.553Z,78.75
2022-08-21T07:02:11.477Z,77.84
2022-08-21T07:03:11.474Z,78.15
2022-08-21T07:04:11.472Z,77.14
2022-08-21T07:05:17.809Z,78.15
2022-08-21T07:06:12.436Z,77.34
2022-08-21T07:07:11.424Z,77.14
2022-08-21T07:08:11.417Z,77.55
2022-08-21T07:09:11.403Z,77.84
2022-08-21T07:10:11.806Z,76.10
2022-08-21T07:11:12.382Z,76.74
2022-08-21T07:12:11.362Z,76.43
2022-08-21T07:13:11.353Z,77.31
2022-08-21T07:14:11.347Z,78.11
2022-08-21T07:15:12.345Z,78.27
2022-08-21T07:16:11.319Z,77.67
2022-08-21T07:17:11.306Z,76.67
2022-08-21T07:18:11.300Z,75.96
2022-08-21T07:19:11.288Z,76.16
2022-08-21T07:20:11.292Z,75.86
2022-08-21T07:21:11.264Z,76.16
2022-08-21T07:22:11.255Z,76.06
2022-08-21T07:23:11.240Z,75.35
2022-08-21T07:24:11.231Z,75.35
2022-08-21T07:25:11.233Z,75.72
2022-08-21T07:26:11.204Z,75.12
2022-08-21T07:27:11.224Z,75.22
2022-08-21T07:28:11.183Z,74.48
2022-08-21T07:29:11.177Z,73.81
2022-08-21T07:30:11.182Z,72.61
2022-08-21T07:31:11.151Z,72.97
2022-08-21T07:32:11.145Z,72.57
2022-08-21T07:33:11.128Z,72.84
2022-08-21T07:34:11.116Z,73.07
2022-08-21T07:35:11.119Z,73.94
2022-08-21T07:36:11.094Z,73.34
2022-08-21T07:37:11.081Z,73.34
2022-08-21T07:38:11.079Z,71.43
2022-08-21T07:39:11.069Z,71.73
2022-08-21T07:40:11.134Z,72.03
2022-08-21T07:41:11.041Z,71.73
2022-08-21T07:42:11.034Z,71.50
2022-08-21T07:43:11.017Z,71.90
2022-08-21T07:44:12.552Z,71.60
2022-08-21T07:45:11.009Z,71.80
2022-08-21T07:46:10.986Z,71.80
2022-08-21T07:47:10.968Z,71.90
2022-08-21T07:48:10.962Z,71.50
2022-08-21T07:49:10.953Z,71.80
2022-08-21T07:50:10.960Z,72.60
2022-08-21T07:51:10.924Z,70.89
2022-08-21T07:52:10.912Z,70.19
2022-08-21T07:53:10.907Z,69.46
2022-08-21T07:54:10.896Z,69.26
2022-08-21T07:55:11.897Z,69.15
2022-08-21T07:56:10.875Z,69.46
2022-08-21T07:57:10.879Z,70.06
2022-08-21T07:58:10.854Z,69.06
2022-08-21T07:59:10.834Z,70.03
2022-08-21T08:00:10.843Z,69.92
2022-08-21T08:01:10.880Z,69.53
2022-08-21T08:02:10.801Z,69.12
2022-08-21T08:03:10.811Z,68.62
2022-08-21T08:04:10.777Z,68.69
2022-08-21T08:05:10.794Z,68.49
2022-08-21T08:06:10.765Z,68.99
2022-08-21T08:07:10.746Z,68.65
2022-08-21T08:08:10.740Z,67.65
2022-08-21T08:09:10.723Z,67.79
2022-08-21T08:10:10.732Z,67.85
2022-08-21T08:11:10.700Z,67.55
2022-08-21T08:12:10.696Z,67.65
2022-08-21T08:13:10.768Z,67.99
2022-08-21T08:14:10.666Z,66.55
2022-08-21T08:15:10.670Z,66.25
2022-08-21T08:16:10.652Z,66.75
2022-08-21T08:17:10.640Z,66.75
2022-08-21T08:18:10.620Z,66.45
2022-08-21T08:19:10.619Z,65.55
2022-08-21T08:20:10.611Z,66.55
2022-08-21T08:21:10.595Z,66.25
2022-08-21T08:22:10.577Z,66.82
2022-08-21T08:23:10.573Z,66.42
2022-08-21T08:24:18.489Z,65.52
2022-08-21T08:25:11.564Z,66.32
2022-08-21T08:26:10.531Z,66.02
2022-08-21T08:27:10.545Z,65.78
2022-08-21T08:28:16.651Z,66.39
2022-08-21T08:29:11.503Z,65.59
2022-08-21T08:30:10.509Z,65.16
2022-08-21T08:31:10.490Z,65.36
2022-08-21T08:32:10.467Z,64.22
2022-08-21T08:33:10.454Z,63.12
2022-08-21T08:34:10.442Z,63.32
2022-08-21T08:35:11.445Z,62.29
2022-08-21T08:36:10.418Z,61.32
2022-08-21T08:37:10.412Z,61.59
2022-08-21T08:38:10.397Z,62.92
2022-08-21T08:39:10.932Z,63.19
2022-08-21T08:40:10.435Z,62.70
2022-08-21T08:41:10.366Z,62.09
2022-08-21T08:42:34.067Z,62.37
2022-08-21T08:43:14.487Z,63.17
2022-08-21T08:44:10.338Z,63.63
2022-08-21T08:45:10.334Z,63.23
2022-08-21T08:46:10.313Z,61.83
2022-08-21T08:47:10.304Z,62.01
2022-08-21T08:48:14.427Z,61.21
2022-08-21T08:49:10.284Z,60.71
2022-08-21T08:50:10.304Z,59.48
2022-08-21T08:51:10.257Z,59.98
2022-08-21T08:52:10.239Z,60.08
2022-08-21T08:53:10.237Z,59.48
2022-08-21T08:54:10.216Z,60.25
2022-08-21T08:55:10.220Z,59.48
2022-08-21T08:56:10.196Z,59.75
2022-08-21T08:57:10.191Z,59.42
2022-08-21T08:58:10.186Z,59.00
2022-08-21T08:59:10.171Z,56.98
2022-08-21T09:00:10.184Z,57.07
2022-08-21T09:01:10.161Z,57.24
2022-08-21T09:02:10.133Z,56.15
2022-08-21T09:03:10.123Z,56.52
2022-08-21T09:04:10.104Z,55.30
2022-08-21T09:05:10.113Z,55.38
2022-08-21T09:06:10.091Z,55.15
2022-08-21T09:07:10.083Z,54.16
2022-08-21T09:08:10.061Z,53.63
2022-08-21T09:09:10.059Z,54.10
2022-08-21T09:10:10.061Z,53.61
2022-08-21T09:11:10.035Z,53.08
2022-08-21T09:12:10.022Z,52.56
2022-08-21T09:13:10.018Z,52.66
2022-08-21T09:14:09.994Z,52.14
2022-08-21T09:15:10.008Z,51.82
2022-08-21T09:16:09.974Z,51.72
2022-08-21T09:17:09.962Z,50.48
2022-08-21T09:18:09.950Z,50.78
2022-08-21T09:19:09.947Z,49.47
2022-08-21T09:20:09.959Z,50.16
2022-08-21T09:21:09.924Z,49.35
2022-08-21T09:22:09.906Z,49.15
2022-08-21T09:23:09.901Z,49.52
2022-08-21T09:24:09.889Z,48.71
2022-08-21T09:25:09.893Z,47.62
2022-08-21T09:26:09.859Z,47.52
2022-08-21T09:27:09.849Z,47.79
2022-08-21T09:28:09.844Z,47.47
2022-08-21T09:29:09.830Z,47.77
2022-08-21T09:30:09.831Z,47.55
2022-08-21T09:31:09.813Z,46.66
2022-08-21T09:32:09.795Z,45.75
2022-08-21T09:33:09.790Z,45.71
2022-08-21T09:34:09.770Z,45.29
2022-08-21T09:35:09.782Z,45.78
2022-08-21T09:36:09.747Z,45.17
2022-08-21T09:37:09.737Z,44.17
2022-08-21T09:38:09.734Z,44.24
2022-08-21T09:39:09.718Z,43.16
2022-08-21T09:40:09.787Z,44.24
2022-08-21T09:41:09.702Z,43.75
2022-08-21T09:42:09.683Z,43.93
2022-08-21T09:43:09.672Z,43.32
2022-08-21T09:44:09.669Z,42.63
2022-08-21T09:45:09.668Z,43.53
2022-08-21T09:46:09.639Z,43.71
2022-08-21T09:47:09.627Z,42.72
2022-08-21T09:48:09.616Z,43.22
2022-08-21T09:49:13.366Z,42.19
2022-08-21T09:50:10.619Z,40.68
2022-08-21T09:51:09.590Z,40.56
2022-08-21T09:52:09.586Z,40.74
2022-08-21T09:53:09.569Z,39.64
2022-08-21T09:54:09.567Z,40.09
2022-08-21T09:55:09.554Z,39.92
2022-08-21T09:56:09.529Z,40.01
2022-08-21T09:57:09.531Z,39.72
2022-08-21T09:58:09.506Z,38.55
2022-08-21T09:59:09.503Z,40.06
2022-08-21T10:00:09.505Z,41.19
2022-08-21T10:01:09.562Z,40.78
2022-08-21T10:02:09.463Z,40.51
2022-08-21T10:03:09.457Z,41.02
2022-08-21T10:04:09.449Z,41.09
2022-08-21T10:05:09.451Z,41.71
2022-08-21T10:06:09.562Z,41.90
2022-08-21T10:07:09.418Z,42.27
2022-08-21T10:08:09.398Z,41.05
2022-08-21T10:09:13.578Z,39.94
2022-08-21T10:10:10.417Z,39.61
2022-08-21T10:11:09.375Z,39.20
2022-08-21T10:12:11.154Z,38.57
2022-08-21T10:13:09.352Z,38.84
2022-08-21T10:14:09.336Z,38.55
2022-08-21T10:15:09.338Z,37.19
2022-08-21T10:16:09.319Z,38.51
2022-08-21T10:17:09.313Z,39.96
2022-08-21T10:18:09.295Z,40.41
2022-08-21T10:19:09.286Z,42.04
2022-08-21T10:20:09.283Z,42.63
2022-08-21T10:21:11.965Z,42.21
2022-08-21T10:22:09.269Z,41.88
2022-08-21T10:23:09.246Z,40.19
2022-08-21T10:24:09.234Z,39.78
2022-08-21T10:25:09.232Z,39.69
2022-08-21T10:26:14.248Z,40.39
2022-08-21T10:27:10.202Z,40.47
2022-08-21T10:28:13.571Z,40.06
2022-08-21T10:29:09.177Z,39.96
2022-08-21T10:30:09.184Z,40.14
2022-08-21T10:31:09.163Z,39.04
2022-08-21T10:32:17.323Z,39.23
2022-08-21T10:33:10.133Z,39.14
2022-08-21T10:34:09.128Z,38.84
2022-08-21T10:35:09.132Z,39.14
2022-08-21T10:36:09.107Z,39.25
2022-08-21T10:37:10.801Z,39.27
2022-08-21T10:38:09.100Z,40.19
2022-08-21T10:39:26.821Z,41.51
2022-08-21T10:40:10.177Z,40.27
2022-08-21T10:41:09.050Z,41.51
2022-08-21T10:42:09.037Z,43.48
2022-08-21T10:43:09.038Z,43.30
2022-08-21T10:44:09.022Z,43.79
2022-08-21T10:45:09.027Z,43.87
2022-08-21T10:46:09.015Z,42.79
2022-08-21T10:47:08.993Z,43.18
2022-08-21T10:48:08.983Z,42.79
2022-08-21T10:49:08.964Z,41.19
2022-08-21T10:50:08.975Z,42.59
2022-08-21T10:51:08.963Z,42.81
2022-08-21T10:52:08.940Z,43.30
2022-08-21T10:53:08.929Z,43.10
2022-08-21T10:54:08.911Z,43.10
2022-08-21T10:55:08.923Z,42.81
2022-08-21T10:56:08.900Z,42.99
2022-08-21T10:57:08.889Z,42.10
2022-08-21T10:58:08.882Z,41.83
2022-08-21T10:59:08.872Z,42.41
2022-08-21T11:00:08.863Z,42.61
2022-08-21T11:01:08.935Z,42.79
2022-08-21T11:02:08.834Z,42.30
2022-08-21T11:03:08.819Z,42.10
2022-08-21T11:04:08.816Z,42.57
2022-08-21T11:05:08.840Z,43.06
2022-08-21T11:06:08.795Z,43.46
2022-08-21T11:07:08.784Z,42.67
2022-08-21T11:08:09.778Z,43.55
2022-08-21T11:09:08.759Z,42.00
2022-08-21T11:10:08.746Z,43.08
2022-08-21T11:11:08.905Z,42.40
2022-08-21T11:12:11.042Z,43.50
2022-08-21T11:13:08.726Z,42.52
2022-08-21T11:14:08.705Z,43.13
2022-08-21T11:15:08.701Z,43.13
2022-08-21T11:16:09.702Z,43.34
2022-08-21T11:17:08.670Z,43.27
2022-08-21T11:18:08.666Z,44.45
2022-08-21T11:19:08.653Z,44.15
2022-08-21T11:20:08.640Z,44.33
2022-08-21T11:21:08.643Z,43.84
2022-08-21T11:22:08.618Z,43.52
2022-08-21T11:23:08.991Z,43.20
2022-08-21T11:24:08.606Z,43.10
2022-08-21T11:25:08.594Z,43.30
2022-08-21T11:26:08.601Z,42.04
2022-08-21T11:27:08.571Z,42.26
2022-08-21T11:28:13.585Z,43.66
2022-08-21T11:29:09.545Z,43.38
2022-08-21T11:30:08.539Z,43.60
2022-08-21T11:31:08.532Z,45.38
2022-08-21T11:32:08.510Z,44.87
2022-08-21T11:33:08.499Z,45.06
2022-08-21T11:34:08.501Z,43.19
2022-08-21T11:35:08.485Z,43.96
2022-08-21T11:36:08.481Z,43.07
2022-08-21T11:37:08.478Z,43.84
2022-08-21T11:38:08.446Z,43.13
2022-08-21T11:39:08.441Z,43.40
2022-08-21T11:40:08.506Z,43.70
2022-08-21T11:41:08.425Z,42.10
2022-08-21T11:42:09.230Z,41.29
2022-08-21T11:43:08.406Z,41.90
2022-08-21T11:44:08.389Z,42.59
2022-08-21T11:45:08.376Z,42.40
2022-08-21T11:46:08.386Z,41.43
2022-08-21T11:47:08.350Z,42.63
2022-08-21T11:48:08.340Z,42.83
2022-08-21T11:49:08.330Z,43.32
2022-08-21T11:50:32.490Z,43.79
2022-08-21T11:51:09.324Z,43.40
2022-08-21T11:52:08.303Z,42.71
2022-08-21T11:53:08.284Z,42.32
2022-08-21T11:54:08.273Z,43.42
2022-08-21T11:55:08.266Z,42.32
2022-08-21T11:56:08.279Z,42.93
2022-08-21T11:57:08.255Z,42.14
2022-08-21T11:58:08.238Z,40.76
2022-08-21T11:59:08.218Z,42.32
2022-08-21T12:00:08.216Z,42.63
2022-08-21T12:01:08.222Z,42.63
2022-08-21T12:02:08.248Z,42.85
2022-08-21T12:03:08.183Z,42.54
2022-08-21T12:04:08.174Z,42.65
2022-08-21T12:05:09.205Z,43.54
2022-08-21T12:06:08.166Z,42.34
2022-08-21T12:07:08.134Z,42.54
2022-08-21T12:08:08.129Z,40.74
2022-08-21T12:09:08.118Z,41.83
2022-08-21T12:10:08.115Z,41.80
2022-08-21T12:11:08.137Z,41.02
2022-08-21T12:12:08.095Z,40.90
2022-08-21T12:13:08.069Z,40.48
2022-08-21T12:14:08.060Z,41.27
2022-08-21T12:15:08.046Z,40.29
2022-08-21T12:16:08.059Z,40.48
2022-08-21T12:17:10.340Z,41.08
2022-08-21T12:18:08.022Z,41.08
2022-08-21T12:19:08.003Z,40.56
2022-08-21T12:20:08.006Z,41.35
2022-08-21T12:21:08.002Z,40.96
2022-08-21T12:22:07.971Z,40.94
2022-08-21T12:23:12.810Z,40.16
2022-08-21T12:24:08.955Z,39.95
2022-08-21T12:25:07.951Z,40.35
2022-08-21T12:26:07.941Z,40.55
2022-08-21T12:27:07.916Z,40.55
2022-08-21T12:28:07.926Z,41.03
2022-08-21T12:29:07.982Z,40.55
2022-08-21T12:30:07.886Z,40.13
2022-08-21T12:31:07.907Z,40.23
2022-08-21T12:32:07.865Z,40.61
2022-08-21T12:33:07.857Z,40.88
2022-08-21T12:34:07.843Z,40.09
2022-08-21T12:35:07.833Z,40.19
2022-08-21T12:36:08.841Z,39.80
2022-08-21T12:37:07.819Z,40.09
2022-08-21T12:38:07.806Z,39.80
2022-08-21T12:39:07.793Z,40.19
2022-08-21T12:40:07.832Z,39.11
2022-08-21T12:41:07.774Z,39.61
2022-08-21T12:42:07.776Z,39.80
2022-08-21T12:43:08.036Z,39.70
2022-08-21T12:44:07.734Z,39.90
2022-08-21T12:45:07.741Z,38.82
2022-08-21T12:46:07.763Z,40.11
2022-08-21T12:47:07.709Z,39.03
2022-08-21T12:48:07.692Z,38.93
2022-08-21T12:49:07.686Z,40.13
2022-08-21T12:50:07.682Z,39.74
2022-08-21T12:51:07.680Z,39.64
2022-08-21T12:52:07.652Z,40.27